Time;durP1;ratioP1;P1;durP2;ratioP2;P2;SDS_P1;SDS_P2;PMS_P1;PMS_P2;Temp;Humidity;BMP_temperature;BMP_pressure;BME280_temperature;BME280_humidity;BME280_pressure;Samples;Min_cycle;Max_cycle;Signal;HPM_P1;HPM_P2
2022/07/04 00:00:16;;;;;;;1999.90;999.90;;;18.40;99.90;;;;;;5074785;28;20538;-80
2022/07/04 00:02:44;;;;;;;1999.90;999.90;;;18.50;99.90;;;;;;5069180;28;20161;-80
2022/07/04 00:05:11;;;;;;;1999.90;999.90;;;18.50;99.90;;;;;;5077933;28;20023;-81
2022/07/04 00:07:37;;;;;;;1999.90;999.90;;;18.60;99.90;;;;;;5066170;28;20043;-83
2022/07/04 00:10:08;;;;;;;1999.90;999.90;;;18.50;99.90;;;;;;5081390;28;20140;-81
2022/07/04 00:12:34;;;;;;;1584.78;779.92;;;18.40;99.90;;;;;;5083858;28;20052;-82
2022/07/04 00:15:01;;;;;;;1999.90;999.90;;;18.40;99.90;;;;;;5079886;28;20043;-81
2022/07/04 00:17:26;;;;;;;1999.90;999.90;;;18.40;99.90;;;;;;5094402;28;20036;-83
2022/07/04 00:19:52;;;;;;;1999.90;999.90;;;18.30;99.90;;;;;;5079411;28;20055;-83
2022/07/04 00:22:18;;;;;;;1999.90;999.90;;;18.20;99.90;;;;;;5079088;28;20032;-83
2022/07/04 00:24:43;;;;;;;1999.90;999.90;;;18.20;99.90;;;;;;5082817;28;20032;-84
2022/07/04 00:27:09;;;;;;;1999.90;999.90;;;18.10;99.90;;;;;;5054148;28;20024;-83
2022/07/04 00:29:35;;;;;;;1999.90;999.90;;;18.00;99.90;;;;;;5070699;28;20448;-83
2022/07/04 00:32:01;;;;;;;1999.90;999.90;;;17.90;99.90;;;;;;5101907;28;20055;-82
2022/07/04 00:34:27;;;;;;;1999.90;999.90;;;17.90;99.90;;;;;;5088181;28;20038;-81
2022/07/04 00:36:53;;;;;;;1999.90;999.90;;;17.90;99.90;;;;;;5083822;28;20054;-82
2022/07/04 00:39:18;;;;;;;1999.90;999.90;;;17.90;99.90;;;;;;5081199;28;20498;-81
2022/07/04 00:41:44;;;;;;;1999.90;999.90;;;17.70;99.90;;;;;;5084008;28;20031;-82
2022/07/04 00:44:12;;;;;;;1999.90;999.90;;;17.70;99.90;;;;;;5050831;28;20024;-81
2022/07/04 00:46:38;;;;;;;1999.90;999.90;;;17.70;99.90;;;;;;5095355;28;20112;-81
2022/07/04 00:49:05;;;;;;;1999.90;999.90;;;17.70;99.90;;;;;;5077922;28;20118;-82
2022/07/04 00:51:31;;;;;;;1999.90;999.90;;;17.60;99.90;;;;;;5074730;28;20028;-83
2022/07/04 00:53:58;;;;;;;1999.90;999.90;;;17.60;99.90;;;;;;5074223;28;20069;-81
2022/07/04 00:56:24;;;;;;;1999.90;999.90;;;17.60;99.90;;;;;;5059989;28;20224;-81
2022/07/04 00:58:51;;;;;;;1999.90;999.90;;;17.60;99.90;;;;;;5092982;28;20050;-81
2022/07/04 01:01:17;;;;;;;1999.90;999.90;;;17.60;99.90;;;;;;5072658;28;20471;-81
2022/07/04 01:03:43;;;;;;;1999.90;999.90;;;17.70;99.90;;;;;;5083363;28;20032;-81
2022/07/04 01:06:11;;;;;;;1999.90;999.90;;;17.60;99.90;;;;;;5099032;28;20031;-81
2022/07/04 01:08:41;;;;;;;1999.90;999.90;;;17.60;99.90;;;;;;5080726;28;20043;-81
2022/07/04 01:11:07;;;;;;;1999.90;999.90;;;17.70;99.90;;;;;;5095947;28;20153;-81
2022/07/04 01:13:33;;;;;;;1999.90;999.90;;;17.70;99.90;;;;;;5061075;28;20044;-81
2022/07/04 01:15:59;;;;;;;1999.90;999.90;;;17.60;99.90;;;;;;5076665;28;20027;-82
2022/07/04 01:18:25;;;;;;;1999.90;999.90;;;17.60;99.90;;;;;;5096034;28;20399;-81
2022/07/04 01:20:51;;;;;;;1999.90;999.90;;;17.50;99.90;;;;;;5074611;28;20035;-81
2022/07/04 01:23:17;;;;;;;1999.90;999.90;;;17.60;99.90;;;;;;5071106;28;20537;-82
2022/07/04 01:25:43;;;;;;;1999.90;999.90;;;17.50;99.90;;;;;;5064743;28;20032;-82
2022/07/04 01:28:09;;;;;;;1999.90;999.90;;;17.60;99.90;;;;;;5070223;28;20031;-82
2022/07/04 01:30:36;;;;;;;1999.90;999.90;;;17.60;99.90;;;;;;5058634;28;20123;-82
2022/07/04 01:33:02;;;;;;;1999.90;999.90;;;17.60;99.90;;;;;;5083267;28;20063;-82
2022/07/04 01:35:28;;;;;;;1999.90;999.90;;;17.60;99.90;;;;;;5103273;28;20495;-83
2022/07/04 01:37:54;;;;;;;1999.90;999.90;;;17.60;99.90;;;;;;5082750;28;20024;-82
2022/07/04 01:40:20;;;;;;;1999.90;999.90;;;17.70;99.90;;;;;;5093661;28;20656;-82
2022/07/04 01:42:45;;;;;;;1999.90;999.90;;;17.80;99.90;;;;;;5095896;28;20039;-82
2022/07/04 01:45:12;;;;;;;1999.90;999.90;;;17.80;99.90;;;;;;5076001;28;20469;-82
2022/07/04 01:47:38;;;;;;;1999.90;999.90;;;17.80;99.90;;;;;;5069761;28;20182;-83
2022/07/04 01:50:05;;;;;;;1999.90;999.90;;;17.90;99.90;;;;;;5093124;28;20043;-83
2022/07/04 01:52:32;;;;;;;1999.90;999.90;;;18.00;99.90;;;;;;5073085;28;20038;-81
2022/07/04 01:54:58;;;;;;;1999.90;999.90;;;18.00;99.90;;;;;;5070352;28;20050;-81
2022/07/04 01:57:23;;;;;;;1999.90;999.90;;;17.90;99.90;;;;;;5051490;28;20020;-81
2022/07/04 02:02:33;;;;;;;1999.90;999.90;;;17.60;99.90;;;;;;5080539;28;20521;-82
2022/07/04 02:04:59;;;;;;;1999.90;999.90;;;17.30;99.90;;;;;;5081249;28;20118;-81
2022/07/04 02:07:25;;;;;;;1999.90;999.90;;;17.20;99.90;;;;;;5098545;28;20450;-85
2022/07/04 02:09:50;;;;;;;1999.90;999.90;;;17.20;99.90;;;;;;5080923;28;20716;-82
2022/07/04 02:15:00;;;;;;;1999.90;999.90;;;17.20;99.90;;;;;;5081202;28;20058;-81
2022/07/04 02:17:26;;;;;;;1999.90;999.90;;;17.10;99.90;;;;;;5073052;28;20036;-81
2022/07/04 02:19:52;;;;;;;1999.90;999.90;;;17.10;99.90;;;;;;5093620;28;20036;-82
2022/07/04 02:22:17;;;;;;;1999.90;999.90;;;17.00;99.90;;;;;;5073380;28;20446;-81
2022/07/04 02:24:43;;;;;;;1999.90;999.90;;;17.10;99.90;;;;;;5074973;28;20032;-82
2022/07/04 02:27:09;;;;;;;1999.90;999.90;;;17.20;99.90;;;;;;5045130;28;20147;-81
2022/07/04 02:29:35;;;;;;;1999.90;999.90;;;17.10;99.90;;;;;;5075697;28;20031;-84
2022/07/04 02:32:01;;;;;;;1999.90;999.90;;;17.00;99.90;;;;;;5099490;28;20036;-82
2022/07/04 02:34:27;;;;;;;1999.90;999.90;;;17.10;99.90;;;;;;5085410;28;20036;-81
2022/07/04 02:36:53;;;;;;;1999.90;999.90;;;17.10;99.90;;;;;;5064972;28;20075;-82
2022/07/04 02:39:18;;;;;;;1999.90;999.90;;;17.00;99.90;;;;;;5083527;28;20031;-81
2022/07/04 02:41:45;;;;;;;1999.90;999.90;;;16.90;99.90;;;;;;5102894;28;20538;-81
2022/07/04 02:44:11;;;;;;;1999.90;999.90;;;16.80;99.90;;;;;;5082175;28;20024;-82
2022/07/04 02:46:37;;;;;;;1999.90;999.90;;;16.70;99.90;;;;;;5064708;28;20420;-82
2022/07/04 02:49:03;;;;;;;1999.90;999.90;;;16.70;99.90;;;;;;5078981;28;20431;-81
2022/07/04 02:51:29;;;;;;;1573.45;777.33;;;16.70;99.90;;;;;;5078285;28;20028;-82
2022/07/04 02:53:55;;;;;;;1648.47;812.85;;;16.70;99.90;;;;;;5086308;28;20031;-85
2022/07/04 02:56:20;;;;;;;1543.57;767.78;;;16.70;99.90;;;;;;5076757;28;20028;-81
2022/07/04 02:58:46;;;;;;;1999.90;999.90;;;16.60;99.90;;;;;;5094713;28;20036;-82
2022/07/04 03:01:12;;;;;;;1603.60;794.60;;;16.60;99.90;;;;;;5074104;28;20027;-81
2022/07/04 03:03:39;;;;;;;1999.90;999.90;;;16.60;99.90;;;;;;5089991;28;20051;-82
2022/07/04 03:06:08;;;;;;;1565.85;775.47;;;16.50;99.90;;;;;;5082854;28;20030;-81
2022/07/04 03:08:34;;;;;;;1558.72;772.72;;;16.60;99.90;;;;;;5080941;28;20788;-82
2022/07/04 03:11:00;;;;;;;1573.07;776.85;;;16.60;99.90;;;;;;5063391;28;20059;-82
2022/07/04 03:13:26;;;;;;;1999.90;999.90;;;16.50;99.90;;;;;;5078589;28;20083;-82
2022/07/04 03:15:52;;;;;;;1999.90;999.90;;;16.50;99.90;;;;;;5076947;28;20020;-82
2022/07/04 03:18:18;;;;;;;1603.35;797.42;;;16.50;99.90;;;;;;5094956;28;20089;-83
2022/07/04 03:20:43;;;;;;;1573.35;773.95;;;16.50;99.90;;;;;;5079795;28;20433;-82
2022/07/04 03:23:09;;;;;;;1999.90;999.90;;;16.50;99.90;;;;;;5093872;28;20038;-82
2022/07/04 03:25:35;;;;;;;1999.90;999.90;;;16.40;99.90;;;;;;5049537;28;20051;-82
2022/07/04 03:28:01;;;;;;;1999.90;999.90;;;16.50;99.90;;;;;;5080011;28;20559;-83
2022/07/04 03:30:27;;;;;;;1999.90;999.90;;;16.50;99.90;;;;;;5086954;28;20031;-83
2022/07/04 03:32:52;;;;;;;1999.90;999.90;;;16.40;99.90;;;;;;5067564;28;20810;-81
2022/07/04 03:35:18;;;;;;;1999.90;999.90;;;16.40;99.90;;;;;;5082862;28;20031;-82
2022/07/04 03:37:44;;;;;;;1999.90;999.90;;;16.40;99.90;;;;;;5062323;28;20030;-82
2022/07/04 03:40:10;;;;;;;1999.90;999.90;;;16.40;99.90;;;;;;5084897;28;20430;-82
2022/07/04 03:42:36;;;;;;;1999.90;999.90;;;16.30;99.90;;;;;;5078271;28;20032;-82
2022/07/04 03:45:02;;;;;;;1999.90;999.90;;;16.30;99.90;;;;;;5078038;28;20028;-82
2022/07/04 03:47:28;;;;;;;1999.90;999.90;;;16.30;99.90;;;;;;5090434;28;20071;-83
2022/07/04 03:49:53;;;;;;;1999.90;999.90;;;16.30;99.90;;;;;;5072102;28;20030;-82
2022/07/04 03:52:19;;;;;;;1999.90;999.90;;;16.20;99.90;;;;;;5057487;28;20036;-82
2022/07/04 03:54:45;;;;;;;1999.90;999.90;;;16.10;99.90;;;;;;5073063;28;20539;-83
2022/07/04 03:57:10;;;;;;;1999.90;999.90;;;16.10;99.90;;;;;;5071952;28;20031;-82
2022/07/04 03:59:36;;;;;;;1999.90;999.90;;;16.20;99.90;;;;;;5081864;28;20028;-82
2022/07/04 04:02:02;;;;;;;1999.90;999.90;;;16.10;99.90;;;;;;5079512;28;20092;-82
2022/07/04 04:07:11;;;;;;;1999.90;999.90;;;16.20;99.90;;;;;;5088043;28;20753;-83
2022/07/04 04:09:37;;;;;;;1999.90;999.90;;;16.20;99.90;;;;;;5097456;28;20040;-82
2022/07/04 04:12:03;;;;;;;1999.90;999.90;;;16.20;99.90;;;;;;5081022;28;20514;-83
2022/07/04 04:14:28;;;;;;;1999.90;999.90;;;16.20;99.90;;;;;;5090339;28;20068;-88
2022/07/04 04:16:54;;;;;;;1999.90;999.90;;;16.20;99.90;;;;;;5078100;28;20073;-83
2022/07/04 04:19:20;;;;;;;1999.90;999.90;;;16.20;99.90;;;;;;5097300;28;20477;-82
2022/07/04 04:21:46;;;;;;;1999.90;999.90;;;16.20;99.90;;;;;;5057209;28;20039;-82
2022/07/04 04:24:11;;;;;;;1999.90;999.90;;;16.20;99.90;;;;;;5072056;28;20140;-83
2022/07/04 04:26:37;;;;;;;1999.90;999.90;;;16.20;99.90;;;;;;5087728;28;20111;-83
2022/07/04 04:29:03;;;;;;;1999.90;999.90;;;16.20;99.90;;;;;;5072715;28;20040;-82
2022/07/04 04:31:30;;;;;;;1999.90;999.90;;;16.20;99.90;;;;;;5071787;28;20040;-82
2022/07/04 04:33:56;;;;;;;1999.90;999.90;;;16.20;99.90;;;;;;5078242;28;20129;-82
2022/07/04 04:36:22;;;;;;;1999.90;999.90;;;16.20;99.90;;;;;;5094522;28;20028;-84
2022/07/04 04:38:48;;;;;;;1609.30;797.85;;;16.30;99.90;;;;;;5079644;28;20027;-83
2022/07/04 04:41:14;;;;;;;1999.90;999.90;;;16.30;99.90;;;;;;5074512;28;20108;-83
2022/07/04 04:43:39;;;;;;;1999.90;999.90;;;16.30;99.90;;;;;;5096081;28;20534;-84
2022/07/04 04:46:05;;;;;;;1999.90;999.90;;;16.30;99.90;;;;;;5077054;28;20456;-84
2022/07/04 04:48:31;;;;;;;1999.90;999.90;;;16.30;99.90;;;;;;5054443;28;20036;-81
2022/07/04 04:50:56;;;;;;;1999.90;999.90;;;16.30;99.90;;;;;;5075417;28;20047;-82
2022/07/04 04:53:25;;;;;;;1999.90;999.90;;;16.40;99.90;;;;;;5086072;28;20035;-81
2022/07/04 04:55:52;;;;;;;1999.90;999.90;;;16.30;99.90;;;;;;5065576;28;20020;-81
2022/07/04 04:58:19;;;;;;;1999.90;999.90;;;16.30;99.90;;;;;;5062315;28;20048;-82
2022/07/04 05:00:44;;;;;;;1999.90;999.90;;;16.30;99.90;;;;;;5052725;28;20035;-81
2022/07/04 05:03:10;;;;;;;1999.90;999.90;;;16.30;99.90;;;;;;5077933;28;20023;-81
2022/07/04 05:05:36;;;;;;;1999.90;999.90;;;16.30;99.90;;;;;;5075494;28;20127;-83
2022/07/04 05:08:01;;;;;;;1999.90;999.90;;;16.40;99.90;;;;;;5091049;28;20081;-82
2022/07/04 05:10:27;;;;;;;1999.90;999.90;;;16.40;99.90;;;;;;5068858;28;20047;-82
2022/07/04 05:12:53;;;;;;;1999.90;999.90;;;16.50;99.90;;;;;;5070971;28;20514;-84
2022/07/04 05:15:18;;;;;;;1999.90;999.90;;;16.50;99.90;;;;;;5073904;28;20036;-83
2022/07/04 05:17:44;;;;;;;1999.90;999.90;;;16.50;99.90;;;;;;5074248;28;20068;-83
2022/07/04 05:20:10;;;;;;;1999.90;999.90;;;16.60;99.90;;;;;;5058609;28;20031;-82
2022/07/04 05:22:36;;;;;;;1999.90;999.90;;;16.70;99.90;;;;;;5067984;28;20064;-82
2022/07/04 05:25:02;;;;;;;1999.90;999.90;;;16.70;99.90;;;;;;5089043;28;20056;-89
2022/07/04 05:27:27;;;;;;;1999.90;999.90;;;16.80;99.90;;;;;;5090409;28;20031;-82
2022/07/04 05:29:53;;;;;;;1999.90;999.90;;;16.80;99.90;;;;;;5083566;28;20080;-83
2022/07/04 05:32:19;;;;;;;1999.90;999.90;;;16.80;99.90;;;;;;5086983;28;20085;-83
2022/07/04 05:34:44;;;;;;;1999.90;999.90;;;17.00;99.90;;;;;;5104308;28;20027;-82
2022/07/04 05:37:10;;;;;;;1999.90;999.90;;;17.00;99.90;;;;;;5076877;28;20399;-81
2022/07/04 05:39:36;;;;;;;1999.90;999.90;;;17.10;99.90;;;;;;5062035;28;20407;-83
2022/07/04 05:42:02;;;;;;;1999.90;999.90;;;17.20;99.90;;;;;;5099170;28;20077;-82
2022/07/04 05:44:28;;;;;;;1999.90;999.90;;;17.20;99.90;;;;;;5096697;28;20057;-82
2022/07/04 05:46:54;;;;;;;1999.90;999.90;;;17.30;99.90;;;;;;5073378;28;20039;-82
2022/07/04 05:49:19;;;;;;;1999.90;999.90;;;17.40;99.90;;;;;;5089042;28;20055;-82
2022/07/04 05:51:45;;;;;;;1999.90;999.90;;;17.50;99.90;;;;;;5072634;28;20546;-83
2022/07/04 05:54:11;;;;;;;1999.90;999.90;;;17.60;99.90;;;;;;5073016;28;20023;-79
2022/07/04 05:56:38;;;;;;;1999.90;999.90;;;17.60;99.90;;;;;;5065594;28;20074;-79
2022/07/04 05:59:03;;;;;;;1999.90;999.90;;;17.70;99.90;;;;;;5098675;28;20055;-82
2022/07/04 06:01:29;;;;;;;1999.90;999.90;;;17.90;99.90;;;;;;5066010;28;20052;-83
2022/07/04 06:03:54;;;;;;;1999.90;999.90;;;18.00;99.90;;;;;;5067674;28;20478;-84
2022/07/04 06:06:20;;;;;;;1999.90;999.90;;;18.00;99.90;;;;;;5080865;28;20165;-83
2022/07/04 06:08:46;;;;;;;1999.90;999.90;;;17.80;99.90;;;;;;5079299;28;20035;-83
2022/07/04 06:11:11;;;;;;;1999.90;999.90;;;17.80;99.90;;;;;;5085197;28;20933;-83
2022/07/04 06:13:37;;;;;;;1999.90;999.90;;;17.80;99.90;;;;;;5065720;28;20509;-83
2022/07/04 06:16:03;;;;;;;1999.90;999.90;;;17.70;99.90;;;;;;5096286;28;20025;-83
2022/07/04 06:18:29;;;;;;;1999.90;999.90;;;17.70;99.90;;;;;;5080649;28;20028;-83
2022/07/04 06:20:55;;;;;;;1999.90;999.90;;;17.70;99.90;;;;;;5091168;28;20063;-82
2022/07/04 06:23:20;;;;;;;1999.90;999.90;;;17.80;99.90;;;;;;5075903;28;20525;-83
2022/07/04 06:25:46;;;;;;;1999.90;999.90;;;17.80;99.90;;;;;;5056051;28;20411;-84
2022/07/04 06:28:12;;;;;;;1999.90;999.90;;;17.80;99.90;;;;;;5063914;28;20100;-83
2022/07/04 06:30:38;;;;;;;1999.90;999.90;;;17.80;99.90;;;;;;5081977;28;20059;-83
2022/07/04 06:33:03;;;;;;;1999.90;999.90;;;18.00;99.90;;;;;;5105184;28;20039;-84
2022/07/04 06:35:46;;;;;;;1999.90;999.90;;;17.90;99.90;;;;;;5070692;28;20032;-84
2022/07/04 06:38:14;;;;;;;1999.90;999.90;;;18.00;99.90;;;;;;5078919;28;20490;-84
2022/07/04 06:40:40;;;;;;;1999.90;999.90;;;18.10;99.90;;;;;;5082690;28;20400;-84
2022/07/04 06:43:06;;;;;;;1999.90;999.90;;;18.20;99.90;;;;;;5082583;28;20173;-83
2022/07/04 06:45:33;;;;;;;1999.90;999.90;;;18.30;99.90;;;;;;5064437;28;20036;-85
2022/07/04 06:48:00;;;;;;;1999.90;999.90;;;18.40;99.90;;;;;;5095723;28;20035;-83
2022/07/04 06:50:26;;;;;;;1999.90;999.90;;;18.50;99.90;;;;;;5062026;28;20079;-82
2022/07/04 06:52:51;;;;;;;1999.90;999.90;;;18.60;99.90;;;;;;5094218;28;20495;-82
2022/07/04 06:55:35;;;;;;;1999.90;999.90;;;18.50;99.90;;;;;;5077546;28;20024;-84
2022/07/04 06:58:02;;;;;;;1999.90;999.90;;;18.40;99.90;;;;;;5089383;28;20055;-82
2022/07/04 07:00:30;;;;;;;1999.90;999.90;;;18.70;99.90;;;;;;5062482;28;20070;-82
2022/07/04 07:02:57;;;;;;;1999.90;999.90;;;18.80;99.90;;;;;;5079102;28;20039;-87
2022/07/04 07:05:24;;;;;;;1999.90;999.90;;;18.80;99.90;;;;;;5096428;28;20023;-82
2022/07/04 07:07:49;;;;;;;1999.90;999.90;;;18.90;99.90;;;;;;5083061;28;20685;-83
2022/07/04 07:10:15;;;;;;;1999.90;999.90;;;19.30;99.90;;;;;;5036498;28;20506;-83
2022/07/04 07:12:41;;;;;;;1999.90;999.90;;;19.40;99.90;;;;;;5069381;28;20840;-83
2022/07/04 07:15:07;;;;;;;1999.90;999.90;;;19.80;99.90;;;;;;5057204;28;20047;-84
2022/07/04 07:17:32;;;;;;;1999.90;999.90;;;20.00;99.90;;;;;;5066216;28;20043;-82
2022/07/04 07:19:58;;;;;;;1999.90;999.90;;;19.90;99.90;;;;;;5090708;28;20479;-83
2022/07/04 07:22:24;;;;;;;1999.90;999.90;;;20.20;99.90;;;;;;5043707;28;20487;-84
2022/07/04 07:24:49;;;;;;;1999.90;999.90;;;19.90;99.90;;;;;;5060141;28;20028;-82
2022/07/04 07:27:15;;;;;;;1999.90;999.90;;;19.90;99.90;;;;;;5058259;28;20028;-83
2022/07/04 07:29:41;;;;;;;1999.90;999.90;;;19.80;99.90;;;;;;5051854;28;20059;-81
2022/07/04 07:32:07;;;;;;;1999.90;999.90;;;19.70;99.90;;;;;;5067868;28;20086;-82
2022/07/04 07:34:33;;;;;;;1999.90;999.90;;;20.10;99.90;;;;;;5092700;28;20042;-81
2022/07/04 07:36:59;;;;;;;1999.90;999.90;;;20.30;99.90;;;;;;5086604;28;20025;-81
2022/07/04 07:39:24;;;;;;;1999.90;999.90;;;20.60;99.90;;;;;;5062283;28;20033;-81
2022/07/04 07:41:50;;;;;;;1999.90;999.90;;;20.70;99.90;;;;;;5084366;28;20213;-80
2022/07/04 07:44:16;;;;;;;1999.90;999.90;;;20.60;99.90;;;;;;5079154;28;20039;-81
2022/07/04 07:46:42;;;;;;;1999.90;999.90;;;20.70;99.90;;;;;;5087502;28;20028;-82
2022/07/04 07:49:08;;;;;;;1999.90;999.90;;;20.60;99.90;;;;;;5074780;28;20062;-81
2022/07/04 07:51:33;;;;;;;1999.90;999.90;;;20.60;99.90;;;;;;5093761;28;20066;-81
2022/07/04 07:53:59;;;;;;;1999.90;999.90;;;20.90;99.90;;;;;;5055289;28;20490;-81
2022/07/04 07:56:25;;;;;;;1999.90;999.90;;;20.80;99.90;;;;;;5066337;28;20368;-82
2022/07/04 07:58:51;;;;;;;1999.90;999.90;;;21.00;99.90;;;;;;5065757;28;20032;-82
2022/07/04 08:01:17;;;;;;;1999.90;999.90;;;21.20;99.90;;;;;;5084235;28;20405;-81
2022/07/04 08:06:28;;;;;;;1999.90;999.90;;;21.00;99.90;;;;;;5100054;28;20069;-82
2022/07/04 08:08:53;;;;;;;1999.90;999.90;;;20.80;93.60;;;;;;5080425;28;20035;-81
2022/07/04 08:11:20;;;;;;;1999.90;999.90;;;20.90;95.80;;;;;;5056814;28;20506;-82
2022/07/04 08:13:45;;;;;;;1999.90;999.90;;;21.20;99.90;;;;;;5090254;28;20036;-83
2022/07/04 08:16:11;;;;;;;1999.90;999.90;;;20.90;96.40;;;;;;5063170;28;20042;-82
2022/07/04 08:18:37;;;;;;;1999.90;999.90;;;21.20;97.80;;;;;;5076286;28;20031;-82
2022/07/04 08:21:03;;;;;;;1999.90;999.90;;;21.10;93.30;;;;;;5078334;28;20143;-82
2022/07/04 08:23:31;;;;;;;1999.90;999.90;;;21.60;98.70;;;;;;5092249;28;20028;-82
2022/07/04 08:25:58;;;;;;;1999.90;999.90;;;21.60;96.10;;;;;;5065172;28;20032;-81
2022/07/04 08:28:23;;;;;;;1999.90;999.90;;;21.50;93.40;;;;;;5084584;28;20043;-81
2022/07/04 08:30:49;;;;;;;1999.90;999.90;;;21.70;89.90;;;;;;5061773;28;20121;-82
2022/07/04 08:33:15;;;;;;;1999.90;999.90;;;22.10;93.20;;;;;;5081373;28;20028;-82
2022/07/04 08:35:40;;;;;;;1999.90;999.90;;;21.90;88.50;;;;;;5095578;28;20020;-83
2022/07/04 08:38:06;;;;;;;1999.90;999.90;;;22.20;88.50;;;;;;5079992;28;20104;-83
2022/07/04 08:40:33;;;;;;;1999.90;999.90;;;22.50;86.60;;;;;;5092330;28;20039;-82
2022/07/04 08:43:02;;;;;;;1999.90;999.90;;;22.20;86.90;;;;;;5090955;28;20028;-82
2022/07/04 08:45:30;;;;;;;1999.90;999.90;;;21.90;91.00;;;;;;5067136;28;20513;-82
2022/07/04 08:48:04;;;;;;;1999.90;999.90;;;22.50;84.10;;;;;;5073638;28;20028;-82
2022/07/04 08:50:32;;;;;;;1999.90;999.90;;;22.80;84.30;;;;;;5070485;28;20035;-82
2022/07/04 08:53:20;;;;;;;1999.90;999.90;;;22.90;79.20;;;;;;5079180;28;20066;-82
2022/07/04 08:58:33;;;;;;;1999.90;999.90;;;23.00;79.90;;;;;;5097774;28;20066;-82
2022/07/04 09:01:01;;;;;;;1999.90;999.90;;;23.30;79.60;;;;;;5081401;28;20035;-82
2022/07/04 09:03:28;;;;;;;1999.90;999.90;;;23.50;76.90;;;;;;5083957;28;20705;-82
2022/07/04 09:05:54;;;;;;;1999.90;999.90;;;23.00;75.30;;;;;;5098383;28;20053;-82
2022/07/04 09:08:20;;;;;;;1999.90;999.90;;;23.00;73.50;;;;;;5058011;28;20126;-81
2022/07/04 09:10:48;;;;;;;1999.90;999.90;;;22.20;79.80;;;;;;5096329;28;20102;-81
2022/07/04 09:13:17;;;;;;;1999.90;999.90;;;22.30;76.20;;;;;;5085398;28;20049;-86
2022/07/04 09:15:44;;;;;;;1999.90;999.90;;;22.60;78.00;;;;;;5075183;28;20035;-81
2022/07/04 09:18:39;;;;;;;1999.90;999.90;;;23.00;78.40;;;;;;5094633;28;20020;-80
2022/07/04 09:21:06;;;;;;;1999.90;999.90;;;23.30;73.20;;;;;;5054694;28;20043;-80
2022/07/04 09:23:36;;;;;;;1999.90;999.90;;;23.00;77.90;;;;;;5068256;28;20036;-82
2022/07/04 09:26:19;;;;;;;1999.90;999.90;;;23.90;75.00;;;;;;5054925;28;20028;-82
2022/07/04 09:28:54;;;;;;;1999.90;999.90;;;24.40;72.50;;;;;;5083035;28;20040;-83
2022/07/04 09:31:23;;;;;;;1999.90;999.90;;;24.50;65.50;;;;;;5085589;28;20036;-81
2022/07/04 09:34:07;;;;;;;1999.90;999.90;;;24.40;71.60;;;;;;5076168;28;20035;-80
2022/07/04 09:36:43;;;;;;;1999.90;999.90;;;24.20;68.00;;;;;;5095491;28;20030;-81
2022/07/04 09:39:21;;;;;;;1999.90;999.90;;;24.00;73.50;;;;;;5079241;28;20258;-81
2022/07/04 09:42:02;;;;;;;1999.90;999.90;;;23.60;71.10;;;;;;5097770;28;20030;-82
2022/07/04 09:44:42;;;;;;;1999.90;999.90;;;23.80;70.90;;;;;;5094799;28;20035;-81
2022/07/04 09:47:24;;;;;;;1999.90;999.90;;;24.00;71.60;;;;;;5097172;28;20478;-80
2022/07/04 09:50:07;;;;;;;1999.90;999.90;;;24.70;71.00;;;;;;5093376;28;20106;-82
2022/07/04 09:52:47;;;;;;;1999.90;999.90;;;24.90;68.50;;;;;;5070476;28;20028;-81
2022/07/04 09:55:21;;;;;;;1999.90;999.90;;;25.10;64.60;;;;;;5087000;28;20044;-82
2022/07/04 09:57:46;;;;;;;1999.90;999.90;;;24.60;64.60;;;;;;5098707;28;20020;-81
2022/07/04 10:00:23;;;;;;;1999.90;999.90;;;25.00;69.20;;;;;;5083251;28;20443;-81
2022/07/04 10:02:50;;;;;;;1999.90;999.90;;;25.10;64.90;;;;;;5082953;28;20126;-82
2022/07/04 10:05:27;;;;;;;1999.90;999.90;;;24.80;64.50;;;;;;5077541;28;20053;-82
2022/07/04 10:07:57;;;;;;;1999.90;999.90;;;25.00;64.40;;;;;;5093629;28;20439;-82
2022/07/04 10:10:28;;;;;;;1999.90;999.90;;;25.00;63.10;;;;;;5069498;28;20036;-82
2022/07/04 10:12:56;;;;;;;1999.90;999.90;;;24.40;71.00;;;;;;5093889;28;20044;-87
2022/07/04 10:15:22;;;;;;;1999.90;999.90;;;24.70;65.80;;;;;;5060884;28;20031;-84
2022/07/04 10:17:48;;;;;;;1999.90;999.90;;;25.30;65.30;;;;;;5075422;28;20028;-82
2022/07/04 10:20:14;;;;;;;1999.90;999.90;;;25.40;62.60;;;;;;5076209;28;20062;-83
2022/07/04 10:22:40;;;;;;;1999.90;999.90;;;25.30;66.70;;;;;;5062372;28;20029;-87
2022/07/04 10:25:08;;;;;;;1999.90;999.90;;;25.30;66.10;;;;;;5091181;28;20504;-84
2022/07/04 10:27:35;;;;;;;1999.90;999.90;;;24.50;64.90;;;;;;5104201;28;20119;-83
2022/07/04 10:30:04;;;;;;;1999.90;999.90;;;24.80;64.60;;;;;;5083475;28;20475;-84
2022/07/04 10:32:30;;;;;;;1999.90;999.90;;;25.20;64.20;;;;;;5060284;28;20028;-83
2022/07/04 10:34:56;;;;;;;1999.90;999.90;;;25.90;65.70;;;;;;5075724;28;20077;-83
2022/07/04 10:37:22;;;;;;;1999.90;999.90;;;26.30;63.80;;;;;;5095167;28;20031;-83
2022/07/04 10:39:48;;;;;;;1999.90;999.90;;;26.20;61.70;;;;;;5063941;28;20565;-83
2022/07/04 10:42:24;;;;;;;1999.90;999.90;;;27.20;66.50;;;;;;5071482;28;20048;-83
2022/07/04 10:44:50;;;;;;;1999.90;999.90;;;27.10;58.60;;;;;;5053171;28;20410;-83
2022/07/04 10:47:30;;;;;;;1999.90;999.90;;;27.80;60.70;;;;;;5097458;28;20047;-84
2022/07/04 10:49:56;;;;;;;1999.90;999.90;;;28.90;53.80;;;;;;5076311;28;20044;-87
2022/07/04 10:52:22;;;;;;;1999.90;999.90;;;28.20;57.30;;;;;;5076919;28;20078;-86
2022/07/04 10:54:48;;;;;;;1999.90;999.90;;;27.90;55.40;;;;;;5056247;28;20430;-87
2022/07/04 10:57:20;;;;;;;1999.90;999.90;;;27.90;58.90;;;;;;5083420;28;20601;-87
2022/07/04 10:59:59;;;;;;;1999.90;999.90;;;27.60;53.20;;;;;;5087349;28;20491;-87
2022/07/04 11:02:32;;;;;;;1999.90;999.90;;;26.80;55.80;;;;;;5082673;28;20032;-86
2022/07/04 11:04:57;;;;;;;1999.90;999.90;;;27.00;56.70;;;;;;5098954;28;20052;-86
2022/07/04 11:07:43;;;;;;;1999.90;999.90;;;27.10;56.60;;;;;;5100154;28;20062;-86
2022/07/04 11:13:02;;;;;;;1999.90;999.90;;;28.10;50.40;;;;;;5096849;28;20036;-87
2022/07/04 11:15:27;;;;;;;1999.90;999.90;;;28.30;53.30;;;;;;5084664;28;20025;-88
2022/07/04 11:17:59;;;;;;;1999.90;999.90;;;28.60;49.50;;;;;;5077487;28;20031;-88
2022/07/04 11:20:26;;;;;;;1999.90;999.90;;;28.60;49.20;;;;;;5075323;28;20039;-87
2022/07/04 11:22:53;;;;;;;1999.90;999.90;;;29.50;53.60;;;;;;5095645;28;20028;-88
2022/07/04 11:25:19;;;;;;;1999.90;999.90;;;29.30;49.50;;;;;;5077925;28;20139;-87
2022/07/04 11:27:44;;;;;;;1999.90;999.90;;;28.40;45.50;;;;;;5067195;28;20714;-87
2022/07/04 11:30:11;;;;;;;1999.90;999.90;;;28.70;51.80;;;;;;5087685;28;20096;-88
2022/07/04 11:32:38;;;;;;;1999.90;999.90;;;29.00;44.50;;;;;;5064141;28;20032;-87
2022/07/04 11:35:06;;;;;;;1999.90;999.90;;;28.90;50.60;;;;;;5080340;28;20517;-86
2022/07/04 11:37:33;;;;;;;1999.90;999.90;;;28.90;48.00;;;;;;5096823;28;20395;-89
2022/07/04 11:45:50;;;;;;;1999.90;999.90;;;28.90;45.00;;;;;;5091716;28;20782;-87
2022/07/04 11:48:26;;;;;;;1999.90;999.90;;;30.00;44.30;;;;;;5085889;28;20511;-87
2022/07/04 11:50:53;;;;;;;1999.90;999.90;;;29.70;45.20;;;;;;5086756;28;20135;-87
2022/07/04 11:53:20;;;;;;;1999.90;999.90;;;30.50;43.10;;;;;;5068271;28;20042;-86
2022/07/04 11:55:56;;;;;;;1999.90;999.90;;;29.50;42.70;;;;;;5081551;28;20082;-87
2022/07/04 11:58:23;;;;;;;1999.90;999.90;;;29.60;43.90;;;;;;5092741;28;20138;-86
2022/07/04 12:00:49;;;;;;;1999.90;999.90;;;30.10;44.90;;;;;;5105338;28;20042;-89
2022/07/04 12:03:15;;;;;;;1999.90;999.90;;;30.20;43.20;;;;;;5085859;28;20031;-87
2022/07/04 12:05:43;;;;;;;1999.90;999.90;;;30.00;42.70;;;;;;5101139;28;20555;-87
2022/07/04 12:08:09;;;;;;;1999.90;999.90;;;30.10;42.70;;;;;;5095134;28;20045;-87
2022/07/04 12:10:35;;;;;;;1999.90;999.90;;;30.70;41.80;;;;;;5080487;28;20365;-87
2022/07/04 12:13:11;;;;;;;1999.90;999.90;;;30.40;42.00;;;;;;5096269;28;20572;-89
2022/07/04 12:15:44;;;;;;;1999.90;999.90;;;30.50;40.20;;;;;;5054950;28;20047;-86
2022/07/04 12:18:24;;;;;;;1999.90;999.90;;;29.90;39.00;;;;;;5089299;28;20043;-88
2022/07/04 12:20:52;;;;;;;1999.90;999.90;;;31.50;37.00;;;;;;5090981;28;20019;-86